sensor_id;sensor_type;location;lat;lon;timestamp;pressure;altitude;pressure_sealevel;temperature;humidity
78615;BME280;67937;52.488;20.952;2024-02-26T00:00:55;99808.20;;;3.61;81.97
78615;BME280;67937;52.488;20.952;2024-02-26T00:03:43;99809.81;;;3.61;81.76
78615;BME280;67937;52.488;20.952;2024-02-26T00:06:12;99810.13;;;3.61;81.94
78615;BME280;67937;52.488;20.952;2024-02-26T00:08:40;99808.92;;;3.61;81.82
78615;BME280;67937;52.488;20.952;2024-02-26T00:11:08;99811.33;;;3.58;81.97
78615;BME280;67937;52.488;20.952;2024-02-26T00:13:36;99811.88;;;3.55;81.86
78615;BME280;67937;52.488;20.952;2024-02-26T00:16:04;99813.30;;;3.58;81.93
78615;BME280;67937;52.488;20.952;2024-02-26T00:18:33;99808.48;;;3.57;81.94
78615;BME280;67937;52.488;20.952;2024-02-26T00:21:02;99806.60;;;3.56;82.10
78615;BME280;67937;52.488;20.952;2024-02-26T00:23:30;99807.14;;;3.56;82.02
78615;BME280;67937;52.488;20.952;2024-02-26T00:25:58;99803.02;;;3.54;82.10
78615;BME280;67937;52.488;20.952;2024-02-26T00:28:26;99803.77;;;3.53;81.97
78615;BME280;67937;52.488;20.952;2024-02-26T00:30:55;99802.02;;;3.51;81.82
78615;BME280;67937;52.488;20.952;2024-02-26T00:33:23;99805.77;;;3.46;82.12
78615;BME280;67937;52.488;20.952;2024-02-26T00:35:51;99806.44;;;3.41;82.20
78615;BME280;67937;52.488;20.952;2024-02-26T00:38:20;99802.60;;;3.38;82.43
78615;BME280;67937;52.488;20.952;2024-02-26T00:40:48;99806.20;;;3.36;82.58
78615;BME280;67937;52.488;20.952;2024-02-26T00:43:16;99800.88;;;3.32;82.76
78615;BME280;67937;52.488;20.952;2024-02-26T00:45:44;99801.20;;;3.32;82.72
78615;BME280;67937;52.488;20.952;2024-02-26T00:48:13;99793.64;;;3.33;82.71
78615;BME280;67937;52.488;20.952;2024-02-26T00:50:41;99783.20;;;3.33;82.65
78615;BME280;67937;52.488;20.952;2024-02-26T00:53:09;99782.03;;;3.29;82.61
78615;BME280;67937;52.488;20.952;2024-02-26T00:55:37;99783.22;;;3.24;82.67
78615;BME280;67937;52.488;20.952;2024-02-26T00:58:05;99785.34;;;3.20;82.66
78615;BME280;67937;52.488;20.952;2024-02-26T01:00:33;99785.48;;;3.18;82.71
78615;BME280;67937;52.488;20.952;2024-02-26T01:03:01;99786.36;;;3.15;82.79
78615;BME280;67937;52.488;20.952;2024-02-26T01:05:30;99788.06;;;3.09;83.05
78615;BME280;67937;52.488;20.952;2024-02-26T01:07:58;99789.84;;;3.00;83.26
78615;BME280;67937;52.488;20.952;2024-02-26T01:10:26;99791.48;;;2.92;83.43
78615;BME280;67937;52.488;20.952;2024-02-26T01:12:54;99792.23;;;2.91;83.57
78615;BME280;67937;52.488;20.952;2024-02-26T01:15:22;99789.39;;;2.95;83.33
78615;BME280;67937;52.488;20.952;2024-02-26T01:17:51;99781.23;;;2.95;83.25
78615;BME280;67937;52.488;20.952;2024-02-26T01:20:19;99783.16;;;2.98;83.27
78615;BME280;67937;52.488;20.952;2024-02-26T01:22:47;99782.17;;;2.97;83.25
78615;BME280;67937;52.488;20.952;2024-02-26T01:25:15;99782.75;;;2.96;83.43
78615;BME280;67937;52.488;20.952;2024-02-26T01:27:43;99784.35;;;2.89;83.60
78615;BME280;67937;52.488;20.952;2024-02-26T01:30:11;99783.75;;;2.87;83.58
78615;BME280;67937;52.488;20.952;2024-02-26T01:32:42;99783.89;;;2.88;83.60
78615;BME280;67937;52.488;20.952;2024-02-26T01:35:10;99785.79;;;2.88;83.50
78615;BME280;67937;52.488;20.952;2024-02-26T01:37:39;99783.47;;;2.89;83.59
78615;BME280;67937;52.488;20.952;2024-02-26T01:40:08;99780.65;;;2.90;83.61
78615;BME280;67937;52.488;20.952;2024-02-26T01:42:39;99779.41;;;2.87;83.69
78615;BME280;67937;52.488;20.952;2024-02-26T01:45:13;99783.65;;;2.89;83.77
78615;BME280;67937;52.488;20.952;2024-02-26T01:47:49;99785.50;;;2.90;83.62
78615;BME280;67937;52.488;20.952;2024-02-26T01:50:18;99782.59;;;2.93;83.95
78615;BME280;67937;52.488;20.952;2024-02-26T01:52:47;99784.99;;;2.96;84.14
78615;BME280;67937;52.488;20.952;2024-02-26T01:55:18;99784.13;;;2.99;83.90
78615;BME280;67937;52.488;20.952;2024-02-26T01:57:48;99786.36;;;3.03;84.07
78615;BME280;67937;52.488;20.952;2024-02-26T02:00:18;99786.92;;;3.05;84.23
78615;BME280;67937;52.488;20.952;2024-02-26T02:02:48;99786.68;;;3.06;84.35
78615;BME280;67937;52.488;20.952;2024-02-26T02:05:16;99785.54;;;3.05;84.48
78615;BME280;67937;52.488;20.952;2024-02-26T02:07:45;99786.88;;;3.03;84.68
78615;BME280;67937;52.488;20.952;2024-02-26T02:10:13;99785.38;;;2.99;84.70
78615;BME280;67937;52.488;20.952;2024-02-26T02:12:41;99788.59;;;2.94;84.73
78615;BME280;67937;52.488;20.952;2024-02-26T02:15:09;99790.65;;;2.92;84.67
78615;BME280;67937;52.488;20.952;2024-02-26T02:17:37;99791.44;;;2.87;84.69
78615;BME280;67937;52.488;20.952;2024-02-26T02:20:10;99786.98;;;2.86;84.64
78615;BME280;67937;52.488;20.952;2024-02-26T02:22:46;99785.23;;;2.86;84.65
78615;BME280;67937;52.488;20.952;2024-02-26T02:25:14;99788.31;;;2.87;84.73
78615;BME280;67937;52.488;20.952;2024-02-26T02:27:43;99786.24;;;2.84;84.82
78615;BME280;67937;52.488;20.952;2024-02-26T02:30:11;99793.05;;;2.80;84.94
78615;BME280;67937;52.488;20.952;2024-02-26T02:32:40;99795.13;;;2.77;85.07
78615;BME280;67937;52.488;20.952;2024-02-26T02:35:09;99797.36;;;2.75;84.84
78615;BME280;67937;52.488;20.952;2024-02-26T02:37:37;99798.69;;;2.73;84.81
78615;BME280;67937;52.488;20.952;2024-02-26T02:40:05;99795.88;;;2.70;84.77
78615;BME280;67937;52.488;20.952;2024-02-26T02:42:34;99799.23;;;2.70;84.76
78615;BME280;67937;52.488;20.952;2024-02-26T02:45:02;99800.15;;;2.65;84.92
78615;BME280;67937;52.488;20.952;2024-02-26T02:47:30;99801.17;;;2.62;85.01
78615;BME280;67937;52.488;20.952;2024-02-26T02:49:58;99805.08;;;2.61;85.07
78615;BME280;67937;52.488;20.952;2024-02-26T02:52:26;99807.31;;;2.58;85.18
78615;BME280;67937;52.488;20.952;2024-02-26T02:54:54;99812.29;;;2.50;85.26
78615;BME280;67937;52.488;20.952;2024-02-26T02:57:22;99813.28;;;2.45;85.33
78615;BME280;67937;52.488;20.952;2024-02-26T02:59:50;99814.05;;;2.44;85.26
78615;BME280;67937;52.488;20.952;2024-02-26T03:02:18;99815.03;;;2.42;85.38
78615;BME280;67937;52.488;20.952;2024-02-26T03:04:46;99819.80;;;2.40;85.13
78615;BME280;67937;52.488;20.952;2024-02-26T03:07:14;99820.77;;;2.39;85.21
78615;BME280;67937;52.488;20.952;2024-02-26T03:09:42;99822.09;;;2.36;85.04
78615;BME280;67937;52.488;20.952;2024-02-26T03:12:10;99822.63;;;2.36;85.20
78615;BME280;67937;52.488;20.952;2024-02-26T03:14:38;99823.23;;;2.35;85.30
78615;BME280;67937;52.488;20.952;2024-02-26T03:17:06;99823.19;;;2.32;85.27
78615;BME280;67937;52.488;20.952;2024-02-26T03:19:34;99822.34;;;2.29;85.20
78615;BME280;67937;52.488;20.952;2024-02-26T03:22:02;99821.00;;;2.25;85.16
78615;BME280;67937;52.488;20.952;2024-02-26T03:24:30;99821.14;;;2.22;85.13
78615;BME280;67937;52.488;20.952;2024-02-26T03:26:58;99817.25;;;2.20;85.15
78615;BME280;67937;52.488;20.952;2024-02-26T03:29:26;99816.33;;;2.21;85.31
78615;BME280;67937;52.488;20.952;2024-02-26T03:31:54;99818.16;;;2.19;85.20
78615;BME280;67937;52.488;20.952;2024-02-26T03:34:22;99819.95;;;2.19;85.27
78615;BME280;67937;52.488;20.952;2024-02-26T03:36:52;99823.52;;;2.17;85.37
78615;BME280;67937;52.488;20.952;2024-02-26T03:39:20;99822.50;;;2.16;85.44
78615;BME280;67937;52.488;20.952;2024-02-26T03:41:48;99825.48;;;2.16;85.49
78615;BME280;67937;52.488;20.952;2024-02-26T03:44:16;99830.21;;;2.12;85.41
78615;BME280;67937;52.488;20.952;2024-02-26T03:46:44;99837.26;;;2.04;85.38
78615;BME280;67937;52.488;20.952;2024-02-26T03:49:12;99835.52;;;2.01;85.45
78615;BME280;67937;52.488;20.952;2024-02-26T03:51:41;99835.52;;;2.00;85.22
78615;BME280;67937;52.488;20.952;2024-02-26T03:54:09;99835.38;;;2.00;85.38
78615;BME280;67937;52.488;20.952;2024-02-26T03:56:37;99835.30;;;2.01;85.16
78615;BME280;67937;52.488;20.952;2024-02-26T03:59:05;99838.41;;;2.02;85.19
78615;BME280;67937;52.488;20.952;2024-02-26T04:01:33;99843.70;;;2.00;85.02
78615;BME280;67937;52.488;20.952;2024-02-26T04:04:01;99844.88;;;1.98;85.15
78615;BME280;67937;52.488;20.952;2024-02-26T04:06:29;99845.86;;;1.96;85.12
78615;BME280;67937;52.488;20.952;2024-02-26T04:08:57;99846.92;;;1.95;85.14
78615;BME280;67937;52.488;20.952;2024-02-26T04:11:25;99845.81;;;1.97;85.34
78615;BME280;67937;52.488;20.952;2024-02-26T04:13:53;99844.38;;;1.97;85.41
78615;BME280;67937;52.488;20.952;2024-02-26T04:16:21;99843.78;;;1.99;85.37
78615;BME280;67937;52.488;20.952;2024-02-26T04:18:49;99844.09;;;2.00;85.29
78615;BME280;67937;52.488;20.952;2024-02-26T04:21:17;99843.40;;;2.00;85.33
78615;BME280;67937;52.488;20.952;2024-02-26T04:23:45;99844.28;;;1.99;85.56
78615;BME280;67937;52.488;20.952;2024-02-26T04:26:13;99844.93;;;2.00;85.79
78615;BME280;67937;52.488;20.952;2024-02-26T04:28:41;99846.21;;;1.99;85.72
78615;BME280;67937;52.488;20.952;2024-02-26T04:31:09;99842.55;;;1.96;85.77
78615;BME280;67937;52.488;20.952;2024-02-26T04:33:37;99839.30;;;1.92;85.76
78615;BME280;67937;52.488;20.952;2024-02-26T04:36:05;99841.80;;;1.90;85.71
78615;BME280;67937;52.488;20.952;2024-02-26T04:38:33;99838.58;;;1.86;85.88
78615;BME280;67937;52.488;20.952;2024-02-26T04:41:01;99840.46;;;1.83;86.14
78615;BME280;67937;52.488;20.952;2024-02-26T04:43:29;99841.93;;;1.81;86.13
78615;BME280;67937;52.488;20.952;2024-02-26T04:45:57;99834.16;;;1.80;86.15
78615;BME280;67937;52.488;20.952;2024-02-26T04:48:27;99834.78;;;1.78;85.98
78615;BME280;67937;52.488;20.952;2024-02-26T04:50:55;99834.89;;;1.76;86.04
78615;BME280;67937;52.488;20.952;2024-02-26T04:53:23;99833.52;;;1.72;85.91
78615;BME280;67937;52.488;20.952;2024-02-26T04:55:51;99836.26;;;1.70;85.96
78615;BME280;67937;52.488;20.952;2024-02-26T04:58:19;99836.45;;;1.69;85.92
78615;BME280;67937;52.488;20.952;2024-02-26T05:00:47;99838.60;;;1.68;86.07
78615;BME280;67937;52.488;20.952;2024-02-26T05:03:15;99839.66;;;1.68;86.00
78615;BME280;67937;52.488;20.952;2024-02-26T05:05:44;99836.16;;;1.68;86.08
78615;BME280;67937;52.488;20.952;2024-02-26T05:08:12;99837.98;;;1.67;85.81
78615;BME280;67937;52.488;20.952;2024-02-26T05:10:40;99835.48;;;1.68;86.05
78615;BME280;67937;52.488;20.952;2024-02-26T05:13:09;99831.63;;;1.65;85.94
78615;BME280;67937;52.488;20.952;2024-02-26T05:15:37;99833.75;;;1.58;86.25
78615;BME280;67937;52.488;20.952;2024-02-26T05:18:05;99832.89;;;1.54;86.18
78615;BME280;67937;52.488;20.952;2024-02-26T05:20:34;99831.45;;;1.52;86.17
78615;BME280;67937;52.488;20.952;2024-02-26T05:23:04;99836.96;;;1.49;86.20
78615;BME280;67937;52.488;20.952;2024-02-26T05:25:32;99839.38;;;1.50;86.33
78615;BME280;67937;52.488;20.952;2024-02-26T05:28:00;99838.73;;;1.52;86.38
78615;BME280;67937;52.488;20.952;2024-02-26T05:30:28;99840.58;;;1.53;86.58
78615;BME280;67937;52.488;20.952;2024-02-26T05:32:56;99839.72;;;1.53;86.53
78615;BME280;67937;52.488;20.952;2024-02-26T05:35:25;99840.40;;;1.53;86.67
78615;BME280;67937;52.488;20.952;2024-02-26T05:37:53;99842.60;;;1.51;86.59
78615;BME280;67937;52.488;20.952;2024-02-26T05:40:21;99845.11;;;1.50;86.82
78615;BME280;67937;52.488;20.952;2024-02-26T05:42:49;99855.29;;;1.51;86.76
78615;BME280;67937;52.488;20.952;2024-02-26T05:45:18;99860.21;;;1.54;86.64
78615;BME280;67937;52.488;20.952;2024-02-26T05:47:46;99861.89;;;1.55;86.73
78615;BME280;67937;52.488;20.952;2024-02-26T05:50:16;99865.16;;;1.56;86.74
78615;BME280;67937;52.488;20.952;2024-02-26T05:52:44;99867.88;;;1.57;86.83
78615;BME280;67937;52.488;20.952;2024-02-26T05:55:12;99869.68;;;1.59;86.74
78615;BME280;67937;52.488;20.952;2024-02-26T05:57:41;99871.44;;;1.62;86.60
78615;BME280;67937;52.488;20.952;2024-02-26T06:00:10;99874.88;;;1.66;86.80
78615;BME280;67937;52.488;20.952;2024-02-26T06:02:39;99867.52;;;1.71;86.77
78615;BME280;67937;52.488;20.952;2024-02-26T06:05:07;99875.96;;;1.79;86.98
78615;BME280;67937;52.488;20.952;2024-02-26T06:07:35;99875.15;;;1.84;87.11
78615;BME280;67937;52.488;20.952;2024-02-26T06:10:04;99875.64;;;1.89;86.98
78615;BME280;67937;52.488;20.952;2024-02-26T06:12:35;99871.66;;;1.94;87.08
78615;BME280;67937;52.488;20.952;2024-02-26T06:15:04;99873.98;;;2.00;86.99
78615;BME280;67937;52.488;20.952;2024-02-26T06:17:32;99881.00;;;2.06;86.96
78615;BME280;67937;52.488;20.952;2024-02-26T06:20:00;99882.91;;;2.12;86.84
78615;BME280;67937;52.488;20.952;2024-02-26T06:22:30;99884.34;;;2.22;87.01
78615;BME280;67937;52.488;20.952;2024-02-26T06:24:59;99890.95;;;2.35;87.09
78615;BME280;67937;52.488;20.952;2024-02-26T06:27:27;99895.42;;;2.49;87.14
78615;BME280;67937;52.488;20.952;2024-02-26T06:29:55;99894.05;;;2.68;87.37
78615;BME280;67937;52.488;20.952;2024-02-26T06:32:23;99895.52;;;2.89;87.44
78615;BME280;67937;52.488;20.952;2024-02-26T06:34:53;99895.10;;;3.09;87.90
78615;BME280;67937;52.488;20.952;2024-02-26T06:37:21;99896.12;;;3.25;87.75
78615;BME280;67937;52.488;20.952;2024-02-26T06:39:49;99898.73;;;3.37;87.91
78615;BME280;67937;52.488;20.952;2024-02-26T06:42:18;99896.45;;;3.43;88.02
78615;BME280;67937;52.488;20.952;2024-02-26T06:44:46;99890.77;;;3.48;88.48
78615;BME280;67937;52.488;20.952;2024-02-26T06:47:14;99894.78;;;3.54;89.00
78615;BME280;67937;52.488;20.952;2024-02-26T06:49:43;99899.20;;;3.59;89.16
78615;BME280;67937;52.488;20.952;2024-02-26T06:52:11;99898.25;;;3.66;89.05
78615;BME280;67937;52.488;20.952;2024-02-26T06:54:39;99900.44;;;3.79;89.13
78615;BME280;67937;52.488;20.952;2024-02-26T06:57:08;99901.09;;;3.89;89.05
78615;BME280;67937;52.488;20.952;2024-02-26T06:59:36;99900.48;;;4.00;89.13
78615;BME280;67937;52.488;20.952;2024-02-26T07:02:05;99899.56;;;4.09;89.10
78615;BME280;67937;52.488;20.952;2024-02-26T07:04:33;99901.28;;;4.21;89.38
78615;BME280;67937;52.488;20.952;2024-02-26T07:07:03;99903.35;;;4.36;89.25
78615;BME280;67937;52.488;20.952;2024-02-26T07:09:31;99907.77;;;4.60;89.39
78615;BME280;67937;52.488;20.952;2024-02-26T07:12:00;99903.52;;;4.81;89.18
78615;BME280;67937;52.488;20.952;2024-02-26T07:14:28;99904.19;;;5.00;89.64
78615;BME280;67937;52.488;20.952;2024-02-26T07:16:56;99903.05;;;5.18;89.52
78615;BME280;67937;52.488;20.952;2024-02-26T07:19:25;99904.11;;;5.32;89.58
78615;BME280;67937;52.488;20.952;2024-02-26T07:21:53;99903.55;;;5.46;89.28
78615;BME280;67937;52.488;20.952;2024-02-26T07:24:21;99909.41;;;5.71;90.96
78615;BME280;67937;52.488;20.952;2024-02-26T07:26:49;99910.69;;;5.78;92.58
78615;BME280;67937;52.488;20.952;2024-02-26T07:29:17;99915.46;;;5.69;92.66
78615;BME280;67937;52.488;20.952;2024-02-26T07:31:46;99912.70;;;5.63;92.46
78615;BME280;67937;52.488;20.952;2024-02-26T07:34:14;99913.47;;;5.73;92.14
78615;BME280;67937;52.488;20.952;2024-02-26T07:36:42;99912.35;;;5.74;92.34
78615;BME280;67937;52.488;20.952;2024-02-26T07:39:11;99911.95;;;5.91;92.24
78615;BME280;67937;52.488;20.952;2024-02-26T07:41:39;99911.04;;;6.09;92.19
78615;BME280;67937;52.488;20.952;2024-02-26T07:44:07;99909.73;;;6.28;91.91
78615;BME280;67937;52.488;20.952;2024-02-26T07:46:35;99908.02;;;6.45;91.54
78615;BME280;67937;52.488;20.952;2024-02-26T07:49:03;99911.39;;;6.60;91.35
78615;BME280;67937;52.488;20.952;2024-02-26T07:51:31;99909.86;;;6.74;91.29
78615;BME280;67937;52.488;20.952;2024-02-26T07:54:00;99912.20;;;6.90;91.00
78615;BME280;67937;52.488;20.952;2024-02-26T07:56:28;99912.92;;;7.00;90.53
78615;BME280;67937;52.488;20.952;2024-02-26T07:58:56;99909.00;;;6.96;90.59
78615;BME280;67937;52.488;20.952;2024-02-26T08:01:24;99915.63;;;7.04;90.34
78615;BME280;67937;52.488;20.952;2024-02-26T08:03:53;99918.34;;;7.10;90.25
78615;BME280;67937;52.488;20.952;2024-02-26T08:06:23;99916.77;;;7.20;90.19
78615;BME280;67937;52.488;20.952;2024-02-26T08:08:51;99919.17;;;7.30;90.05
78615;BME280;67937;52.488;20.952;2024-02-26T08:11:20;99922.30;;;7.42;89.40
78615;BME280;67937;52.488;20.952;2024-02-26T08:13:48;99923.31;;;7.50;88.50
78615;BME280;67937;52.488;20.952;2024-02-26T08:16:16;99916.59;;;7.58;88.74
78615;BME280;67937;52.488;20.952;2024-02-26T08:18:44;99922.52;;;7.67;88.05
78615;BME280;67937;52.488;20.952;2024-02-26T08:21:12;99924.45;;;7.74;87.95
78615;BME280;67937;52.488;20.952;2024-02-26T08:23:43;99925.05;;;7.81;87.45
78615;BME280;67937;52.488;20.952;2024-02-26T08:26:11;99920.89;;;7.80;87.09
78615;BME280;67937;52.488;20.952;2024-02-26T08:28:40;99932.46;;;7.88;86.98
78615;BME280;67937;52.488;20.952;2024-02-26T08:31:08;99930.71;;;7.87;86.68
78615;BME280;67937;52.488;20.952;2024-02-26T08:33:36;99927.06;;;7.77;87.27
78615;BME280;67937;52.488;20.952;2024-02-26T08:36:07;99926.53;;;7.89;87.41
78615;BME280;67937;52.488;20.952;2024-02-26T08:38:36;99927.02;;;8.08;87.24
78615;BME280;67937;52.488;20.952;2024-02-26T08:41:04;99924.98;;;8.24;87.35
78615;BME280;67937;52.488;20.952;2024-02-26T08:43:32;99923.95;;;8.42;87.14
78615;BME280;67937;52.488;20.952;2024-02-26T08:46:00;99929.27;;;8.64;86.13
78615;BME280;67937;52.488;20.952;2024-02-26T08:48:29;99931.46;;;8.72;85.36
78615;BME280;67937;52.488;20.952;2024-02-26T08:50:57;99933.14;;;8.79;85.21
78615;BME280;67937;52.488;20.952;2024-02-26T08:53:25;99936.10;;;8.88;85.06
78615;BME280;67937;52.488;20.952;2024-02-26T08:55:54;99931.17;;;9.02;84.53
78615;BME280;67937;52.488;20.952;2024-02-26T08:58:22;99932.59;;;9.13;84.06
78615;BME280;67937;52.488;20.952;2024-02-26T09:00:51;99935.87;;;9.18;83.55
78615;BME280;67937;52.488;20.952;2024-02-26T09:03:19;99940.02;;;9.25;83.59
78615;BME280;67937;52.488;20.952;2024-02-26T09:05:48;99944.62;;;9.34;83.58
78615;BME280;67937;52.488;20.952;2024-02-26T09:08:17;99948.13;;;9.45;84.02
78615;BME280;67937;52.488;20.952;2024-02-26T09:10:45;99949.23;;;9.57;83.27
78615;BME280;67937;52.488;20.952;2024-02-26T09:13:14;99948.77;;;9.58;83.23
78615;BME280;67937;52.488;20.952;2024-02-26T09:15:42;99947.80;;;9.70;83.09
78615;BME280;67937;52.488;20.952;2024-02-26T09:18:10;99941.61;;;9.83;83.48
78615;BME280;67937;52.488;20.952;2024-02-26T09:20:38;99945.73;;;9.99;83.20
78615;BME280;67937;52.488;20.952;2024-02-26T09:23:07;99944.97;;;10.04;83.09
78615;BME280;67937;52.488;20.952;2024-02-26T09:25:35;99941.80;;;10.12;82.42
78615;BME280;67937;52.488;20.952;2024-02-26T09:28:03;99940.37;;;10.25;82.78
78615;BME280;67937;52.488;20.952;2024-02-26T09:30:32;99933.37;;;10.41;81.91
78615;BME280;67937;52.488;20.952;2024-02-26T09:33:00;99935.80;;;10.50;82.23
78615;BME280;67937;52.488;20.952;2024-02-26T09:35:28;99935.18;;;10.55;81.91
78615;BME280;67937;52.488;20.952;2024-02-26T09:37:57;99936.11;;;10.59;81.97
78615;BME280;67937;52.488;20.952;2024-02-26T09:40:25;99939.63;;;10.59;81.10
78615;BME280;67937;52.488;20.952;2024-02-26T09:42:59;99938.96;;;10.62;81.65
78615;BME280;67937;52.488;20.952;2024-02-26T09:45:28;99940.10;;;10.64;81.69
78615;BME280;67937;52.488;20.952;2024-02-26T09:47:56;99938.05;;;10.77;80.52
78615;BME280;67937;52.488;20.952;2024-02-26T09:50:25;99941.41;;;10.81;80.48
78615;BME280;67937;52.488;20.952;2024-02-26T09:52:54;99944.63;;;10.88;80.29
78615;BME280;67937;52.488;20.952;2024-02-26T09:55:24;99942.39;;;10.98;80.15
78615;BME280;67937;52.488;20.952;2024-02-26T09:57:52;99941.42;;;11.07;78.91
78615;BME280;67937;52.488;20.952;2024-02-26T10:00:21;99945.20;;;11.14;77.61
78615;BME280;67937;52.488;20.952;2024-02-26T10:02:51;99943.17;;;11.19;78.14
78615;BME280;67937;52.488;20.952;2024-02-26T10:05:19;99946.40;;;11.28;78.11
78615;BME280;67937;52.488;20.952;2024-02-26T10:07:48;99949.17;;;11.45;77.77
78615;BME280;67937;52.488;20.952;2024-02-26T10:10:17;99950.05;;;11.54;78.13
78615;BME280;67937;52.488;20.952;2024-02-26T10:12:46;99946.39;;;11.64;78.42
78615;BME280;67937;52.488;20.952;2024-02-26T10:15:14;99944.20;;;11.73;78.26
78615;BME280;67937;52.488;20.952;2024-02-26T10:17:42;99943.49;;;11.86;76.34
78615;BME280;67937;52.488;20.952;2024-02-26T10:20:15;99942.02;;;11.92;76.04
78615;BME280;67937;52.488;20.952;2024-02-26T10:22:44;99943.56;;;11.97;76.25
78615;BME280;67937;52.488;20.952;2024-02-26T10:25:13;99943.90;;;12.03;76.50
78615;BME280;67937;52.488;20.952;2024-02-26T10:27:41;99945.98;;;12.03;77.06
78615;BME280;67937;52.488;20.952;2024-02-26T10:30:17;99944.94;;;12.05;77.21
78615;BME280;67937;52.488;20.952;2024-02-26T10:32:47;99945.41;;;12.04;77.30
78615;BME280;67937;52.488;20.952;2024-02-26T10:35:16;99947.56;;;12.00;77.57
78615;BME280;67937;52.488;20.952;2024-02-26T10:37:44;99942.50;;;12.06;77.79
78615;BME280;67937;52.488;20.952;2024-02-26T10:40:14;99939.66;;;12.03;77.73
78615;BME280;67937;52.488;20.952;2024-02-26T10:42:43;99941.14;;;11.93;77.59
78615;BME280;67937;52.488;20.952;2024-02-26T10:45:12;99940.15;;;11.97;77.04
78615;BME280;67937;52.488;20.952;2024-02-26T10:47:40;99944.64;;;11.87;77.32
78615;BME280;67937;52.488;20.952;2024-02-26T10:50:09;99946.31;;;11.84;77.68
78615;BME280;67937;52.488;20.952;2024-02-26T10:52:37;99945.66;;;11.94;77.21
78615;BME280;67937;52.488;20.952;2024-02-26T10:55:05;99947.98;;;11.91;77.71
78615;BME280;67937;52.488;20.952;2024-02-26T10:57:40;99945.48;;;11.99;77.54
78615;BME280;67937;52.488;20.952;2024-02-26T11:00:14;99943.73;;;12.12;77.77
78615;BME280;67937;52.488;20.952;2024-02-26T11:02:44;99938.86;;;12.34;77.19
78615;BME280;67937;52.488;20.952;2024-02-26T11:05:13;99941.81;;;12.42;76.76
78615;BME280;67937;52.488;20.952;2024-02-26T11:07:42;99947.17;;;12.42;76.99
78615;BME280;67937;52.488;20.952;2024-02-26T11:10:11;99944.88;;;12.45;76.68
78615;BME280;67937;52.488;20.952;2024-02-26T11:12:41;99945.79;;;12.47;77.04
78615;BME280;67937;52.488;20.952;2024-02-26T11:15:10;99942.91;;;12.55;76.65
78615;BME280;67937;52.488;20.952;2024-02-26T11:17:38;99945.33;;;12.61;76.45
78615;BME280;67937;52.488;20.952;2024-02-26T11:20:09;99949.49;;;12.60;76.72
78615;BME280;67937;52.488;20.952;2024-02-26T11:22:39;99949.63;;;12.62;76.13
78615;BME280;67937;52.488;20.952;2024-02-26T11:25:07;99953.33;;;12.68;76.35
78615;BME280;67937;52.488;20.952;2024-02-26T11:27:46;99954.71;;;12.80;75.69
78615;BME280;67937;52.488;20.952;2024-02-26T11:30:17;99956.52;;;13.00;75.36
78615;BME280;67937;52.488;20.952;2024-02-26T11:32:46;99952.45;;;13.13;74.49
78615;BME280;67937;52.488;20.952;2024-02-26T11:35:15;99951.67;;;13.18;74.70
78615;BME280;67937;52.488;20.952;2024-02-26T11:37:57;99947.92;;;13.25;74.80
78615;BME280;67937;52.488;20.952;2024-02-26T11:40:25;99950.57;;;13.30;73.03
78615;BME280;67937;52.488;20.952;2024-02-26T11:42:54;99954.26;;;13.14;73.92
78615;BME280;67937;52.488;20.952;2024-02-26T11:48:12;99956.70;;;13.17;74.02
78615;BME280;67937;52.488;20.952;2024-02-26T11:50:42;99953.46;;;13.30;74.00
78615;BME280;67937;52.488;20.952;2024-02-26T11:58:46;99956.05;;;13.84;72.02
78615;BME280;67937;52.488;20.952;2024-02-26T12:01:47;99952.03;;;13.91;70.58
78615;BME280;67937;52.488;20.952;2024-02-26T12:04:24;99956.40;;;13.61;71.74
78615;BME280;67937;52.488;20.952;2024-02-26T12:06:56;99956.29;;;13.78;71.45
78615;BME280;67937;52.488;20.952;2024-02-26T12:09:31;99954.91;;;13.96;71.18
78615;BME280;67937;52.488;20.952;2024-02-26T12:12:01;99958.14;;;13.83;70.92
78615;BME280;67937;52.488;20.952;2024-02-26T12:14:33;99965.42;;;13.67;71.61
78615;BME280;67937;52.488;20.952;2024-02-26T12:17:01;99963.10;;;13.65;71.39
78615;BME280;67937;52.488;20.952;2024-02-26T12:19:36;99960.17;;;13.41;71.71
78615;BME280;67937;52.488;20.952;2024-02-26T12:22:07;99955.38;;;13.21;72.49
78615;BME280;67937;52.488;20.952;2024-02-26T12:24:36;99953.38;;;13.22;72.69
78615;BME280;67937;52.488;20.952;2024-02-26T12:27:04;99948.69;;;13.34;72.84
78615;BME280;67937;52.488;20.952;2024-02-26T12:29:33;99947.44;;;13.53;72.51
78615;BME280;67937;52.488;20.952;2024-02-26T12:32:03;99954.17;;;13.59;70.78
78615;BME280;67937;52.488;20.952;2024-02-26T12:34:32;99958.42;;;13.34;71.30
78615;BME280;67937;52.488;20.952;2024-02-26T12:37:01;99959.99;;;13.27;71.90
78615;BME280;67937;52.488;20.952;2024-02-26T12:39:29;99956.35;;;13.17;72.16
78615;BME280;67937;52.488;20.952;2024-02-26T12:41:58;99962.70;;;13.10;72.65
78615;BME280;67937;52.488;20.952;2024-02-26T12:44:27;99960.64;;;13.13;72.88
78615;BME280;67937;52.488;20.952;2024-02-26T12:47:02;99958.29;;;13.30;72.66
78615;BME280;67937;52.488;20.952;2024-02-26T12:49:31;99956.73;;;13.51;72.28
78615;BME280;67937;52.488;20.952;2024-02-26T12:51:59;99955.38;;;13.54;71.89
78615;BME280;67937;52.488;20.952;2024-02-26T12:54:30;99950.33;;;13.46;72.02
78615;BME280;67937;52.488;20.952;2024-02-26T12:57:00;99946.73;;;13.39;72.65
78615;BME280;67937;52.488;20.952;2024-02-26T12:59:29;99944.71;;;13.45;71.94
78615;BME280;67937;52.488;20.952;2024-02-26T13:01:58;99943.66;;;13.52;71.17
78615;BME280;67937;52.488;20.952;2024-02-26T13:04:29;99945.80;;;13.56;71.87
78615;BME280;67937;52.488;20.952;2024-02-26T13:06:58;99948.21;;;13.58;72.03
78615;BME280;67937;52.488;20.952;2024-02-26T13:09:32;99948.48;;;13.66;72.12
78615;BME280;67937;52.488;20.952;2024-02-26T13:12:04;99950.46;;;13.59;72.06
78615;BME280;67937;52.488;20.952;2024-02-26T13:14:33;99948.10;;;13.57;72.02